createdAt,value
2017-07-25T00:01:54.003Z,12.98
2017-07-25T00:04:22.354Z,13.08
2017-07-25T00:06:50.683Z,13.12
2017-07-25T00:09:19.040Z,13.20
2017-07-25T00:11:47.381Z,13.15
2017-07-25T00:14:15.718Z,13.06
2017-07-25T00:16:44.073Z,13.05
2017-07-25T00:19:12.390Z,12.98
2017-07-25T00:21:40.743Z,13.00
2017-07-25T00:24:09.076Z,13.05
2017-07-25T00:26:37.430Z,13.02
2017-07-25T00:29:05.804Z,13.08
2017-07-25T00:31:34.125Z,13.09
2017-07-25T00:34:02.469Z,13.02
2017-07-25T00:36:30.824Z,13.04
2017-07-25T00:38:59.163Z,13.08
2017-07-25T00:41:27.526Z,13.15
2017-07-25T00:43:55.932Z,13.11
2017-07-25T00:46:24.542Z,13.23
2017-07-25T00:48:52.858Z,13.17
2017-07-25T00:51:21.180Z,13.07
2017-07-25T00:53:49.525Z,13.14
2017-07-25T00:56:17.857Z,13.23
2017-07-25T00:58:46.442Z,13.32
2017-07-25T01:01:14.760Z,13.31
2017-07-25T01:03:43.109Z,13.22
2017-07-25T01:06:11.493Z,13.34
2017-07-25T01:08:39.828Z,13.44
2017-07-25T01:11:08.183Z,13.44
2017-07-25T01:13:36.522Z,13.37
2017-07-25T01:16:04.853Z,13.46
2017-07-25T01:18:33.204Z,13.53
2017-07-25T01:21:01.527Z,13.44
2017-07-25T01:23:29.858Z,13.51
2017-07-25T01:25:58.202Z,13.56
2017-07-25T01:28:26.512Z,13.51
2017-07-25T01:30:54.866Z,13.53
2017-07-25T01:33:23.206Z,13.60
2017-07-25T01:35:51.819Z,13.56
2017-07-25T01:38:20.141Z,13.50
2017-07-25T01:40:49.068Z,13.56
2017-07-25T01:43:17.421Z,13.54
2017-07-25T01:45:45.747Z,13.50
2017-07-25T01:48:14.340Z,13.50
2017-07-25T01:50:42.662Z,13.55
2017-07-25T01:53:10.999Z,13.51
2017-07-25T01:55:39.622Z,13.56
2017-07-25T01:58:07.975Z,13.52
2017-07-25T02:00:36.319Z,13.61
2017-07-25T02:03:04.948Z,13.49
2017-07-25T02:05:33.288Z,13.51
2017-07-25T02:08:01.681Z,13.53
2017-07-25T02:10:30.127Z,13.61
2017-07-25T02:12:58.468Z,13.65
2017-07-25T02:15:27.070Z,13.72
2017-07-25T02:17:55.390Z,13.79
2017-07-25T02:20:23.711Z,13.71
2017-07-25T02:22:52.048Z,13.81
2017-07-25T02:25:20.374Z,13.82
2017-07-25T02:27:48.720Z,13.79
2017-07-25T02:30:17.058Z,13.84
2017-07-25T02:32:45.410Z,13.94
2017-07-25T02:35:13.771Z,13.98
2017-07-25T02:37:42.116Z,14.01
2017-07-25T02:40:10.503Z,14.13
2017-07-25T02:42:38.853Z,14.12
2017-07-25T02:45:07.197Z,14.17
2017-07-25T02:47:35.568Z,14.20
2017-07-25T02:50:03.933Z,14.17
2017-07-25T02:52:32.297Z,14.25
2017-07-25T02:55:00.652Z,14.29
2017-07-25T02:57:28.998Z,14.27
2017-07-25T02:59:57.603Z,14.29
2017-07-25T03:02:26.008Z,14.26
2017-07-25T03:04:54.409Z,14.26
2017-07-25T03:07:22.757Z,14.19
2017-07-25T03:09:51.100Z,14.21
2017-07-25T03:12:19.741Z,14.26
2017-07-25T03:14:48.064Z,14.21
2017-07-25T03:17:16.397Z,14.28
2017-07-25T03:19:44.775Z,14.32
2017-07-25T03:22:13.125Z,14.26
2017-07-25T03:24:41.819Z,14.26
2017-07-25T03:27:10.171Z,14.24
2017-07-25T03:29:38.505Z,14.32
2017-07-25T03:32:06.855Z,14.33
2017-07-25T03:34:35.185Z,14.40
2017-07-25T03:37:03.804Z,14.38
2017-07-25T03:39:32.131Z,14.37
2017-07-25T03:42:00.454Z,14.38
2017-07-25T03:44:28.824Z,14.39
2017-07-25T03:46:57.159Z,14.38
2017-07-25T03:49:25.801Z,14.37
2017-07-25T03:51:54.146Z,14.39
2017-07-25T03:54:22.490Z,14.39
2017-07-25T03:56:50.898Z,14.47
2017-07-25T03:59:19.243Z,14.42
2017-07-25T04:01:47.581Z,14.50
2017-07-25T04:04:15.919Z,14.52
2017-07-25T04:06:44.246Z,14.51
2017-07-25T04:09:12.597Z,14.54
2017-07-25T04:11:40.947Z,14.58
2017-07-25T04:14:09.325Z,14.56
2017-07-25T04:16:37.656Z,14.59
2017-07-25T04:19:05.988Z,14.60
2017-07-25T04:21:34.302Z,14.62
2017-07-25T04:24:02.905Z,14.64
2017-07-25T04:26:31.237Z,14.72
2017-07-25T04:28:59.564Z,14.73
2017-07-25T04:31:27.905Z,14.79
2017-07-25T04:33:56.223Z,14.82
2017-07-25T04:36:24.826Z,14.76
2017-07-25T04:38:53.738Z,14.76
2017-07-25T04:41:22.054Z,14.76
2017-07-25T04:43:50.398Z,14.71
2017-07-25T04:46:18.728Z,14.77
2017-07-25T04:48:47.384Z,14.78
2017-07-25T04:51:15.727Z,14.75
2017-07-25T04:53:44.060Z,14.79
2017-07-25T04:56:12.401Z,14.85
2017-07-25T04:58:40.754Z,14.84
2017-07-25T05:01:09.360Z,14.82
2017-07-25T05:03:37.671Z,14.88
2017-07-25T05:06:05.994Z,14.91
2017-07-25T05:08:34.336Z,14.88
2017-07-25T05:11:02.661Z,14.93
2017-07-25T05:13:31.001Z,14.88
2017-07-25T05:15:59.354Z,14.84
2017-07-25T05:18:40.455Z,14.90
2017-07-25T05:21:08.800Z,14.92
2017-07-25T05:23:37.135Z,14.96
2017-07-25T05:26:05.482Z,14.94
2017-07-25T05:28:33.817Z,14.94
2017-07-25T05:31:02.184Z,15.03
2017-07-25T05:33:31.139Z,15.05
2017-07-25T05:35:59.483Z,15.09
2017-07-25T05:38:27.832Z,15.08
2017-07-25T05:40:56.147Z,15.08
2017-07-25T05:43:24.725Z,15.13
2017-07-25T05:45:53.060Z,15.13
2017-07-25T05:48:21.376Z,15.21
2017-07-25T05:50:49.726Z,15.26
2017-07-25T05:53:18.058Z,15.28
2017-07-25T05:55:46.659Z,15.28
2017-07-25T05:58:14.971Z,15.29
2017-07-25T06:00:43.293Z,15.40
2017-07-25T06:03:11.876Z,15.45
2017-07-25T06:05:40.204Z,15.46
2017-07-25T06:08:08.514Z,15.48
2017-07-25T06:10:37.455Z,15.46
2017-07-25T06:13:05.787Z,15.44
2017-07-25T06:15:34.380Z,15.41
2017-07-25T06:18:02.711Z,15.37
2017-07-25T06:20:31.027Z,15.32
2017-07-25T06:22:59.363Z,15.32
2017-07-25T06:25:27.695Z,15.35
2017-07-25T06:27:56.306Z,15.35
2017-07-25T06:30:24.647Z,15.43
2017-07-25T06:32:52.963Z,15.26
2017-07-25T06:35:21.325Z,15.29
2017-07-25T06:37:49.643Z,15.37
2017-07-25T06:40:18.001Z,15.45
2017-07-25T06:42:46.328Z,15.50
2017-07-25T06:45:14.935Z,15.51
2017-07-25T06:47:43.260Z,15.55
2017-07-25T06:50:11.578Z,15.53
2017-07-25T06:52:39.947Z,15.55
2017-07-25T06:55:08.353Z,15.58
2017-07-25T06:57:36.973Z,15.55
2017-07-25T07:00:05.300Z,15.56
2017-07-25T07:02:33.661Z,15.57
2017-07-25T07:05:02.017Z,15.57
2017-07-25T07:07:30.340Z,15.54
2017-07-25T07:09:58.973Z,15.53
2017-07-25T07:12:27.307Z,15.57
2017-07-25T07:14:55.644Z,15.64
2017-07-25T07:17:23.999Z,15.73
2017-07-25T07:19:52.346Z,15.74
2017-07-25T07:22:20.964Z,15.81
2017-07-25T07:24:49.344Z,15.93
2017-07-25T07:27:17.688Z,15.94
2017-07-25T07:29:46.029Z,15.97
2017-07-25T07:32:14.359Z,16.01
2017-07-25T07:34:42.958Z,15.97
2017-07-25T07:37:11.292Z,16.13
2017-07-25T07:39:39.639Z,16.16
2017-07-25T07:42:07.996Z,16.21
2017-07-25T07:44:36.327Z,16.28
2017-07-25T07:47:04.685Z,16.36
2017-07-25T07:49:33.035Z,16.37
2017-07-25T07:52:01.376Z,16.43
2017-07-25T07:54:29.733Z,16.52
2017-07-25T07:56:58.068Z,16.51
2017-07-25T07:59:26.422Z,16.53
2017-07-25T08:01:54.774Z,16.53
2017-07-25T08:04:23.095Z,16.57
2017-07-25T08:06:51.427Z,16.63
2017-07-25T08:09:19.750Z,16.66
2017-07-25T08:11:48.378Z,16.74
2017-07-25T08:14:16.695Z,16.71
2017-07-25T08:16:45.032Z,16.80
2017-07-25T08:19:13.629Z,16.87
2017-07-25T08:21:41.975Z,16.89
2017-07-25T08:24:10.312Z,16.84
2017-07-25T08:26:38.643Z,16.73
2017-07-25T08:29:06.981Z,16.73
2017-07-25T08:31:35.583Z,16.78
2017-07-25T08:34:03.909Z,16.76
2017-07-25T08:36:32.231Z,16.87
2017-07-25T08:39:00.595Z,16.83
2017-07-25T08:41:28.917Z,16.80
2017-07-25T08:43:58.753Z,16.85
2017-07-25T08:46:27.125Z,16.89
2017-07-25T08:48:55.484Z,16.95
2017-07-25T08:51:23.877Z,16.93
2017-07-25T08:53:52.218Z,16.96
2017-07-25T08:56:20.856Z,17.02
2017-07-25T08:58:49.202Z,16.98
2017-07-25T09:01:17.534Z,17.10
2017-07-25T09:03:45.880Z,17.09
2017-07-25T09:06:14.217Z,17.21
2017-07-25T09:08:42.813Z,17.17
2017-07-25T09:11:11.144Z,17.12
2017-07-25T09:13:39.487Z,17.10
2017-07-25T09:16:07.851Z,17.02
2017-07-25T09:18:36.189Z,17.14
2017-07-25T09:21:04.549Z,17.18
2017-07-25T09:23:35.674Z,17.11
2017-07-25T09:26:04.393Z,17.05
2017-07-25T09:28:32.740Z,17.01
2017-07-25T09:31:01.075Z,17.15
2017-07-25T09:33:29.446Z,17.28
2017-07-25T09:35:57.788Z,17.35
2017-07-25T09:38:26.605Z,17.42
2017-07-25T09:40:54.923Z,17.48
2017-07-25T09:43:23.247Z,17.49
2017-07-25T09:45:52.353Z,17.40
2017-07-25T09:48:20.676Z,17.53
2017-07-25T09:50:49.030Z,17.65
2017-07-25T09:53:17.397Z,17.59
2017-07-25T09:55:45.731Z,17.51
2017-07-25T09:58:14.358Z,17.60
2017-07-25T10:00:42.676Z,17.59
2017-07-25T10:03:11.019Z,17.56
2017-07-25T10:05:39.380Z,17.68
2017-07-25T10:08:07.721Z,17.70
2017-07-25T10:10:36.089Z,17.76
2017-07-25T10:13:04.436Z,17.81
2017-07-25T10:15:33.549Z,17.82
2017-07-25T10:18:02.227Z,17.93
2017-07-25T10:20:30.571Z,18.11
2017-07-25T10:22:58.902Z,18.20
2017-07-25T10:25:27.325Z,18.30
2017-07-25T10:27:55.705Z,18.43
2017-07-25T10:30:24.372Z,18.48
2017-07-25T10:32:52.714Z,18.43
2017-07-25T10:35:21.067Z,18.31
2017-07-25T10:37:50.217Z,18.44
2017-07-25T10:40:18.571Z,18.51
2017-07-25T10:42:47.239Z,18.41
2017-07-25T10:45:15.552Z,18.39
2017-07-25T10:47:43.878Z,18.27
2017-07-25T10:50:12.209Z,18.25
2017-07-25T10:52:40.533Z,18.25
2017-07-25T10:55:09.131Z,18.14
2017-07-25T10:57:37.483Z,18.10
2017-07-25T11:00:05.832Z,18.10
2017-07-25T11:02:34.212Z,18.21
2017-07-25T11:05:02.553Z,18.35
2017-07-25T11:07:32.005Z,18.48
2017-07-25T11:10:00.323Z,18.57
2017-07-25T11:12:28.644Z,18.63
2017-07-25T11:14:56.990Z,18.73
2017-07-25T11:17:26.101Z,18.70
2017-07-25T11:19:54.447Z,18.62
2017-07-25T11:22:22.789Z,18.57
2017-07-25T11:24:51.116Z,18.30
2017-07-25T11:27:19.464Z,18.32
2017-07-25T11:29:47.782Z,18.23
2017-07-25T11:32:16.419Z,18.30
2017-07-25T11:34:44.740Z,18.36
2017-07-25T11:37:13.084Z,18.54
2017-07-25T11:39:41.436Z,18.67
2017-07-25T11:42:09.771Z,18.82
2017-07-25T11:44:38.586Z,18.77
2017-07-25T11:47:06.914Z,18.77
2017-07-25T11:49:35.236Z,18.83
2017-07-25T11:52:04.447Z,18.85
2017-07-25T11:54:32.786Z,18.84
2017-07-25T11:57:01.152Z,18.75
2017-07-25T11:59:29.490Z,18.88
2017-07-25T12:01:58.174Z,18.99
2017-07-25T12:04:26.526Z,19.00
2017-07-25T12:06:54.868Z,19.04
2017-07-25T12:09:23.235Z,19.15
2017-07-25T12:11:51.563Z,19.06
2017-07-25T12:14:20.178Z,19.07
2017-07-25T12:16:48.523Z,19.05
2017-07-25T12:19:16.863Z,18.97
2017-07-25T12:21:46.136Z,19.08
2017-07-25T12:24:14.482Z,19.28
2017-07-25T12:26:43.210Z,19.28
2017-07-25T12:29:11.554Z,19.35
2017-07-25T12:31:39.890Z,19.43
2017-07-25T12:34:08.243Z,19.41
2017-07-25T12:36:36.568Z,19.55
2017-07-25T12:39:05.714Z,19.50
2017-07-25T12:41:34.064Z,19.50
2017-07-25T12:44:02.463Z,19.50
2017-07-25T12:46:31.110Z,19.42
2017-07-25T12:49:01.498Z,19.64
2017-07-25T12:51:29.965Z,19.74
2017-07-25T12:53:58.404Z,19.82
2017-07-25T12:56:26.839Z,19.84
2017-07-25T12:58:55.247Z,19.82
2017-07-25T13:01:41.259Z,19.78
2017-07-25T13:04:09.650Z,19.60
2017-07-25T13:06:38.004Z,19.45
2017-07-25T13:09:06.360Z,19.33
2017-07-25T13:11:34.738Z,19.29
2017-07-25T13:14:03.105Z,19.20
2017-07-25T13:16:31.444Z,19.02
2017-07-25T13:18:59.801Z,18.91
2017-07-25T13:21:28.128Z,18.83
2017-07-25T13:23:56.501Z,18.70
2017-07-25T13:26:24.859Z,18.64
2017-07-25T13:28:53.207Z,18.49
2017-07-25T13:31:21.795Z,18.41
2017-07-25T13:33:50.187Z,18.25
2017-07-25T13:36:18.511Z,18.22
2017-07-25T13:38:46.866Z,17.96
2017-07-25T13:41:15.206Z,17.90
2017-07-25T13:43:43.543Z,17.87
2017-07-25T13:46:11.899Z,17.76
2017-07-25T13:48:40.233Z,17.65
2017-07-25T13:51:08.615Z,17.59
2017-07-25T13:53:36.940Z,17.48
2017-07-25T13:56:05.301Z,17.47
2017-07-25T13:58:34.158Z,17.56
2017-07-25T14:01:02.485Z,17.66
2017-07-25T14:03:31.105Z,17.65
2017-07-25T14:06:00.209Z,17.70
2017-07-25T14:08:28.529Z,17.65
2017-07-25T14:10:56.876Z,17.60
2017-07-25T14:13:26.000Z,17.62
2017-07-25T14:15:54.330Z,17.63
2017-07-25T14:18:22.698Z,17.63
2017-07-25T14:20:51.037Z,17.60
2017-07-25T14:23:19.425Z,17.65
2017-07-25T14:25:47.787Z,17.73
2017-07-25T14:28:16.119Z,17.76
2017-07-25T14:30:44.453Z,17.71
2017-07-25T14:33:12.789Z,17.78
2017-07-25T14:35:41.146Z,17.79
2017-07-25T14:38:09.481Z,17.80
2017-07-25T14:40:37.815Z,17.77
2017-07-25T14:43:06.152Z,17.77
2017-07-25T14:45:34.550Z,17.82
2017-07-25T14:48:03.161Z,17.79
2017-07-25T14:50:31.500Z,17.81
2017-07-25T14:52:59.861Z,17.77
2017-07-25T14:55:28.228Z,17.79
2017-07-25T14:57:56.567Z,17.83
2017-07-25T15:00:24.917Z,17.87
2017-07-25T15:02:53.257Z,17.90
2017-07-25T15:05:21.606Z,17.88
2017-07-25T15:07:49.947Z,17.84
2017-07-25T15:10:18.294Z,17.90
2017-07-25T15:12:46.666Z,17.78
2017-07-25T15:15:15.041Z,17.78
2017-07-25T15:17:43.384Z,17.85
2017-07-25T15:20:11.728Z,17.82
2017-07-25T15:22:40.054Z,17.60
2017-07-25T15:25:08.694Z,17.64
2017-07-25T15:27:37.038Z,17.70
2017-07-25T15:30:05.379Z,17.68
2017-07-25T15:32:33.740Z,17.67
2017-07-25T15:35:02.080Z,17.65
2017-07-25T15:37:30.432Z,17.65
2017-07-25T15:39:58.791Z,17.74
2017-07-25T15:42:27.141Z,17.69
2017-07-25T15:44:57.262Z,17.80
2017-07-25T15:47:25.585Z,17.90
2017-07-25T15:49:54.181Z,17.99
2017-07-25T15:52:22.546Z,17.97
2017-07-25T15:54:50.884Z,18.04
2017-07-25T15:57:19.241Z,18.03
2017-07-25T15:59:47.573Z,17.99
2017-07-25T16:02:15.920Z,18.13
2017-07-25T16:04:44.256Z,18.03
2017-07-25T16:07:12.623Z,17.96
2017-07-25T16:09:40.988Z,17.85
2017-07-25T16:12:09.307Z,17.74
2017-07-25T16:14:38.143Z,17.74
2017-07-25T16:17:06.492Z,17.80
2017-07-25T16:19:34.830Z,17.77
2017-07-25T16:22:03.192Z,17.82
2017-07-25T16:24:31.521Z,17.72
2017-07-25T16:26:59.868Z,17.72
2017-07-25T16:29:28.225Z,17.68
2017-07-25T16:31:56.556Z,17.64
2017-07-25T16:34:24.918Z,17.64
2017-07-25T16:36:53.481Z,17.72
2017-07-25T16:39:22.249Z,17.73
2017-07-25T16:41:50.590Z,17.64
2017-07-25T16:44:18.946Z,17.71
2017-07-25T16:46:47.308Z,17.62
2017-07-25T16:49:15.656Z,17.69
2017-07-25T16:51:44.781Z,17.63
2017-07-25T16:54:13.154Z,17.69
2017-07-25T16:56:41.523Z,17.65
2017-07-25T16:59:10.445Z,17.61
2017-07-25T17:01:38.764Z,17.53
2017-07-25T17:04:07.147Z,17.56
2017-07-25T17:06:35.507Z,17.55
2017-07-25T17:09:03.859Z,17.57
2017-07-25T17:11:32.234Z,17.50
2017-07-25T17:14:01.614Z,17.52
2017-07-25T17:16:30.398Z,17.46
2017-07-25T17:18:58.750Z,17.48
2017-07-25T17:21:27.091Z,17.41
2017-07-25T17:23:55.849Z,17.28
2017-07-25T17:26:24.177Z,17.22
2017-07-25T17:28:52.560Z,17.29
2017-07-25T17:31:20.926Z,17.26
2017-07-25T17:33:49.266Z,17.29
2017-07-25T17:36:17.646Z,17.32
2017-07-25T17:38:46.019Z,17.35
2017-07-25T17:41:14.409Z,17.35
2017-07-25T17:43:42.773Z,17.33
2017-07-25T17:46:11.114Z,17.29
2017-07-25T17:48:39.452Z,17.30
2017-07-25T17:51:07.777Z,17.25
2017-07-25T17:53:36.146Z,17.19
2017-07-25T17:56:04.490Z,17.27
2017-07-25T17:58:33.107Z,17.26
2017-07-25T18:01:01.511Z,17.24
2017-07-25T18:03:29.853Z,17.23
2017-07-25T18:05:58.626Z,17.17
2017-07-25T18:08:26.960Z,17.14
2017-07-25T18:10:55.342Z,17.08
2017-07-25T18:13:23.706Z,17.12
2017-07-25T18:15:52.057Z,17.04
2017-07-25T18:18:20.497Z,17.05
2017-07-25T18:20:48.844Z,16.95
2017-07-25T18:23:17.191Z,16.96
2017-07-25T18:25:45.517Z,16.92
2017-07-25T18:28:13.918Z,16.97
2017-07-25T18:30:43.053Z,16.99
2017-07-25T18:33:11.482Z,16.94
2017-07-25T18:35:40.817Z,16.84
2017-07-25T18:38:09.657Z,16.86
2017-07-25T18:40:38.298Z,16.86
2017-07-25T18:43:07.843Z,16.74
2017-07-25T18:45:36.227Z,16.73
2017-07-25T18:48:04.586Z,16.62
2017-07-25T18:50:32.960Z,16.69
2017-07-25T18:53:01.296Z,16.61
2017-07-25T18:55:29.840Z,16.59
2017-07-25T18:57:58.633Z,16.52
2017-07-25T19:00:27.311Z,16.57
2017-07-25T19:02:55.724Z,16.60
2017-07-25T19:05:24.074Z,16.54
2017-07-25T19:07:52.459Z,16.47
2017-07-25T19:10:20.798Z,16.38
2017-07-25T19:12:49.208Z,16.39
2017-07-25T19:15:17.565Z,16.28
2017-07-25T19:17:45.941Z,16.24
2017-07-25T19:20:14.290Z,16.29
2017-07-25T19:22:42.671Z,16.27
2017-07-25T19:25:11.396Z,16.23
2017-07-25T19:27:39.732Z,16.30
2017-07-25T19:30:08.058Z,16.20
2017-07-25T19:32:36.406Z,16.19
2017-07-25T19:35:05.526Z,16.11
2017-07-25T19:37:33.877Z,16.16
2017-07-25T19:40:02.279Z,16.20
2017-07-25T19:42:30.632Z,16.11
2017-07-25T19:44:59.023Z,16.08
2017-07-25T19:47:27.380Z,16.06
2017-07-25T19:49:56.491Z,16.05
2017-07-25T19:52:24.841Z,16.04
2017-07-25T19:54:53.211Z,16.14
2017-07-25T19:57:23.210Z,16.18
2017-07-25T19:59:51.550Z,16.14
2017-07-25T20:02:19.883Z,16.10
2017-07-25T20:04:48.462Z,16.04
2017-07-25T20:07:16.828Z,15.98
2017-07-25T20:09:45.631Z,16.08
2017-07-25T20:12:13.968Z,16.09
2017-07-25T20:14:42.318Z,16.13
2017-07-25T20:17:10.659Z,16.07
2017-07-25T20:19:39.008Z,16.04
2017-07-25T20:22:08.423Z,15.95
2017-07-25T20:24:36.761Z,15.90
2017-07-25T20:27:05.099Z,15.88
2017-07-25T20:29:33.595Z,15.97
2017-07-25T20:32:01.988Z,15.96
2017-07-25T20:34:30.639Z,15.94
2017-07-25T20:36:58.991Z,15.91
2017-07-25T20:39:27.332Z,15.93
2017-07-25T20:41:55.688Z,15.97
2017-07-25T20:44:24.025Z,15.89
2017-07-25T20:46:52.452Z,15.92
2017-07-25T20:49:20.799Z,15.89
2017-07-25T20:51:49.916Z,15.92
2017-07-25T20:54:18.269Z,15.87
2017-07-25T20:56:46.619Z,15.87
2017-07-25T20:59:14.971Z,15.89
2017-07-25T21:01:43.327Z,15.95
2017-07-25T21:04:11.713Z,15.90
2017-07-25T21:06:40.144Z,15.86
2017-07-25T21:09:08.497Z,15.84
2017-07-25T21:11:36.863Z,15.89
2017-07-25T21:14:05.222Z,15.85
2017-07-25T21:16:33.575Z,15.85
2017-07-25T21:19:01.948Z,15.88
2017-07-25T21:21:30.269Z,15.82
2017-07-25T21:23:58.612Z,15.84
2017-07-25T21:26:26.956Z,15.80
2017-07-25T21:28:55.338Z,15.80
2017-07-25T21:31:23.684Z,15.79
2017-07-25T21:33:52.031Z,15.74
2017-07-25T21:36:20.372Z,15.60
2017-07-25T21:38:48.693Z,15.62
2017-07-25T21:41:17.083Z,15.63
2017-07-25T21:43:45.453Z,15.62
2017-07-25T21:46:13.805Z,15.62
2017-07-25T21:48:42.166Z,15.72
2017-07-25T21:51:10.488Z,15.68
2017-07-25T21:53:38.825Z,15.67
2017-07-25T21:56:07.173Z,15.73
2017-07-25T21:58:35.540Z,15.73
2017-07-25T22:01:21.461Z,15.58
2017-07-25T22:04:07.243Z,15.58
2017-07-25T22:06:35.587Z,15.57
2017-07-25T22:09:03.925Z,15.61
2017-07-25T22:11:32.795Z,15.50
2017-07-25T22:14:01.549Z,15.65
2017-07-25T22:16:30.451Z,15.65
2017-07-25T22:18:59.454Z,15.66
2017-07-25T22:21:28.315Z,15.62
2017-07-25T22:23:57.277Z,15.66
2017-07-25T22:26:26.071Z,15.60
2017-07-25T22:28:54.521Z,15.57
2017-07-25T22:31:22.875Z,15.59
2017-07-25T22:33:51.206Z,15.62
2017-07-25T22:36:19.559Z,15.57
2017-07-25T22:38:47.895Z,15.63
2017-07-25T22:41:16.234Z,15.59
2017-07-25T22:43:44.559Z,15.59
2017-07-25T22:46:12.911Z,15.60
2017-07-25T22:48:41.264Z,15.56
2017-07-25T22:51:09.630Z,15.59
2017-07-25T22:53:37.967Z,15.63
2017-07-25T22:56:06.316Z,15.59
2017-07-25T22:58:34.645Z,15.54
2017-07-25T23:01:02.997Z,15.57
2017-07-25T23:03:31.351Z,15.59
2017-07-25T23:06:00.410Z,15.61
2017-07-25T23:08:28.760Z,15.56
2017-07-25T23:10:57.084Z,15.65
2017-07-25T23:13:25.677Z,15.61
2017-07-25T23:15:54.012Z,15.63
2017-07-25T23:18:22.328Z,15.65
2017-07-25T23:20:50.678Z,15.66
2017-07-25T23:23:19.008Z,15.58
2017-07-25T23:25:47.358Z,15.58
2017-07-25T23:28:15.687Z,15.54
2017-07-25T23:30:44.044Z,15.59
2017-07-25T23:33:12.397Z,15.66
2017-07-25T23:35:40.718Z,15.72
2017-07-25T23:38:09.073Z,15.71
2017-07-25T23:40:37.404Z,15.65
2017-07-25T23:43:05.771Z,15.65
2017-07-25T23:45:34.101Z,15.67
2017-07-25T23:48:02.472Z,15.68
2017-07-25T23:50:30.829Z,15.67
2017-07-25T23:52:59.154Z,15.61
2017-07-25T23:55:27.558Z,15.60
2017-07-25T23:57:55.914Z,15.69
